首页
METAR-TAF:

METAR-TAF

机场 :

阿伯丁, 马里兰州, 美国

纬度: 39-28N, 经度: 076-10W, 海拔: 18米

当前天气观测

该预报发布于36分钟前的14:50 UTC
风速5节,风向多变
温度 27°C
湿度 62%
气压 1015 hPa
能見度: 16.1公里
少量云层高于6000英尺
散云层高于10000英尺
多云层高于20000英尺

METAR: KAPG 171450Z VRB05KT 10SM FEW060 SCT100 BKN200 27/19 A2998

时间: 11:26 (15:26 UTC)


TAF: 丢失

超过4000个机场的气象观测和天气预报(METAR&TAF报告)。

可查询的气象台以黄色和红色小点在地图上表示。

将鼠标移到小点上方,可查看气象台名称。

然后点击查看天气观测和预报。

如需切换地图:点击带黑十字的绿色按钮放大地图;点击带横线的绿色按钮缩小地图;或者点击绿色箭头查看邻近地区的地图。


METAR-TAF: